Airfield :
LOGIN :

Register | Disclaimer

   EN    FR    IT 

 










Legend :    VFR   Marginal VFR   IFR   Intensive IFR   Very Intensive IFR
Visi :
Ceiling :
>= 8 km
>= 3000ft
5 to 8 km
1000 to 3000 ft
1500m to 5 km
500 to 1000 ft
800 to 1500m
200 to 500 ft
< 800m
< 200 ft
Symbols :   Thunderstorms  Fog  Heavy snow  Heavy precipitations  Wind > 20 kt
SIGMETs :     Misc.  Thunderstorms  Icing  Turbulence  Mountain Waves  Volcanic Ashes






- Airport Elevation : 288 ft
- IATA code : BZZ


EGVN - RAF Brize Norton

CURRENT METAR :
  • 071523Z 27009KT 3000 +RA OVC020 14/12 Q1016 TEMPO 6000 RA SCT022 RMK YLO1 TEMPO WHT

EXPIRED METARs :
  • 071520Z 26010G21KT 7000 -RA OVC028 14/11 Q1016 TEMPO 4000 RA SCT022 RMK WHT TEMPO GRN
  • 071450Z 25013G23KT 9999 7000E -RA SCT031 OVC040 16/09 Q1015 TEMPO 4000 RA SCT022 RMK WHT TEMPO GRN
  • 071420Z 23010G22KT 9999 BKN036 OVC060 18/09 Q1015 TEMPO 6000 RA BKN022 RMK BLU TEMPO WHT
  • 071350Z 23010G22KT 9999 BKN036 18/09 Q1015 TEMPO 6000 RA BKN022 RMK BLU TEMPO WHT
  • 071320Z 22010G22KT 9999 BKN035 17/09 Q1016 TEMPO SCT024 RMK BLU TEMPO WHT
  • 071250Z 22010G20KT 9999 BKN037 17/09 Q1016 TEMPO SCT023

TAF TAF EGVN
Valid from the 07 at 15:00 until the 08 at 15:00 UTC


071350Z 0715/0815 21014KT 9999 SCT040
TEMPO 0715/0717 23015G27KT
PROB40
TEMPO 0715/0717 6000 RA SCT022
PROB30
TEMPO 0715/0717 3000 +RA SCT014



MET'MAP, your aeronautical weather chart ! - Copyright ORBIFLY December 2007 - Disclaimer

ORBIFLY MET'MAP TEAM :

Programming & Development : Alexandra Zaïnal
Original concept : Baudouin d'Aumeries
Technical & hardware support : Manuel Goepfert
Assistance : Marc-Olivier Méhu




SOURCES & CREDITS :

   NOAA